Time;durP1;ratioP1;P1;durP2;ratioP2;P2;SDS_P1;SDS_P2;PMS_P1;PMS_P2;Temp;Humidity;BMP_temperature;BMP_pressure;BME280_temperature;BME280_humidity;BME280_pressure;Samples;Min_cycle;Max_cycle;Signal;HPM_P1;HPM_P2
2021/06/25 00:01:29;;;;;;;19.90;18.10;;;18.90;81.50;;;;;;4917584;29;20202;-59
2021/06/25 00:03:55;;;;;;;19.43;17.70;;;18.90;80.50;;;;;;4928853;29;20249;-58
2021/06/25 00:06:21;;;;;;;20.33;18.33;;;18.90;82.90;;;;;;4922618;29;20294;-58
2021/06/25 00:08:46;;;;;;;19.47;17.57;;;18.90;82.60;;;;;;4915756;29;20653;-57
2021/06/25 00:11:12;;;;;;;19.00;17.30;;;18.90;83.70;;;;;;4914047;29;20197;-58
2021/06/25 00:13:38;;;;;;;19.03;17.33;;;18.90;85.40;;;;;;4912137;29;20183;-57
2021/06/25 00:16:04;;;;;;;19.80;18.10;;;18.80;87.80;;;;;;4919256;29;20449;-58
2021/06/25 00:18:30;;;;;;;20.53;18.57;;;18.80;90.00;;;;;;4927078;29;20803;-58
2021/06/25 00:20:55;;;;;;;19.40;17.70;;;18.80;91.10;;;;;;4913463;29;20525;-57
2021/06/25 00:23:21;;;;;;;20.70;18.67;;;18.80;90.70;;;;;;4923681;28;20206;-57
2021/06/25 00:25:46;;;;;;;20.80;18.90;;;18.80;89.10;;;;;;4919682;29;20188;-59
2021/06/25 00:28:12;;;;;;;19.30;17.50;;;18.80;86.70;;;;;;4920139;29;20185;-58
2021/06/25 00:30:38;;;;;;;20.63;18.73;;;18.80;84.60;;;;;;4912779;29;20716;-59
2021/06/25 00:33:04;;;;;;;20.97;18.73;;;18.80;86.00;;;;;;4919379;29;20253;-58
2021/06/25 00:35:29;;;;;;;19.63;17.57;;;18.80;85.70;;;;;;4913299;29;20433;-59
2021/06/25 00:37:55;;;;;;;20.27;18.37;;;18.80;88.20;;;;;;4919267;29;20438;-59
2021/06/25 00:40:21;;;;;;;21.47;19.20;;;18.80;89.10;;;;;;4912382;29;20238;-58
2021/06/25 00:42:46;;;;;;;21.57;19.63;;;18.80;82.90;;;;;;4913203;29;20779;-58
2021/06/25 00:45:15;;;;;;;20.17;18.47;;;18.80;89.00;;;;;;4913112;29;20195;-59
2021/06/25 00:47:43;;;;;;;21.23;19.23;;;18.70;90.90;;;;;;4922349;29;20190;-58
2021/06/25 00:50:10;;;;;;;21.00;18.80;;;18.70;90.30;;;;;;4914424;29;20450;-58
2021/06/25 00:52:35;;;;;;;19.87;17.93;;;18.70;91.30;;;;;;4913045;29;20828;-59
2021/06/25 00:55:02;;;;;;;20.23;18.40;;;18.70;91.20;;;;;;4913294;29;20429;-59
2021/06/25 00:57:27;;;;;;;19.90;17.97;;;18.70;92.30;;;;;;4922750;29;20192;-58
2021/06/25 00:59:53;;;;;;;20.40;18.43;;;18.70;92.70;;;;;;4926532;29;20474;-62
2021/06/25 01:02:18;;;;;;;20.70;18.80;;;18.70;93.20;;;;;;4920161;29;20194;-57
2021/06/25 01:04:44;;;;;;;19.60;17.80;;;18.70;91.80;;;;;;4916839;29;20201;-58
2021/06/25 01:07:10;;;;;;;20.07;18.03;;;18.60;93.80;;;;;;4918684;29;20193;-58
2021/06/25 01:09:37;;;;;;;21.37;19.37;;;18.60;93.50;;;;;;4929482;29;20197;-58
2021/06/25 01:12:06;;;;;;;20.93;19.03;;;18.50;96.10;;;;;;4916986;29;20472;-59
2021/06/25 01:14:33;;;;;;;22.13;20.03;;;18.50;96.50;;;;;;4916078;29;20446;-58
2021/06/25 01:16:59;;;;;;;20.37;18.47;;;18.60;96.20;;;;;;4920649;29;20438;-59
2021/06/25 01:19:25;;;;;;;21.63;19.67;;;18.60;96.10;;;;;;4923877;29;20474;-56
2021/06/25 01:21:50;;;;;;;21.40;19.30;;;18.60;95.80;;;;;;4922218;29;20453;-58
2021/06/25 01:24:16;;;;;;;20.17;18.27;;;18.50;96.30;;;;;;4930353;29;20206;-58
2021/06/25 01:26:41;;;;;;;21.30;19.40;;;18.50;97.00;;;;;;4921763;29;20247;-58
2021/06/25 01:29:07;;;;;;;21.83;19.53;;;18.50;95.70;;;;;;4923415;29;20190;-58
2021/06/25 01:31:33;;;;;;;21.97;19.77;;;18.60;95.50;;;;;;4918239;29;20523;-58
2021/06/25 01:33:59;;;;;;;20.60;18.67;;;18.50;94.90;;;;;;4918433;29;20182;-58
2021/06/25 01:36:25;;;;;;;20.57;18.37;;;18.60;95.30;;;;;;4916903;29;20282;-57
2021/06/25 01:38:51;;;;;;;19.40;17.53;;;18.60;91.20;;;;;;4919323;29;20444;-58
2021/06/25 01:41:17;;;;;;;20.23;18.43;;;18.60;91.50;;;;;;4932944;29;20808;-60
2021/06/25 01:43:44;;;;;;;19.43;17.73;;;18.60;92.60;;;;;;4916584;29;20427;-56
2021/06/25 01:46:14;;;;;;;19.90;18.17;;;18.60;94.80;;;;;;4934944;29;20181;-59
2021/06/25 01:48:40;;;;;;;22.53;20.00;;;18.60;94.40;;;;;;4932518;29;20438;-57
2021/06/25 01:51:06;;;;;;;20.47;18.50;;;18.60;93.90;;;;;;4916596;29;20442;-57
2021/06/25 01:53:31;;;;;;;20.00;18.07;;;18.60;94.90;;;;;;4930308;29;20183;-54
2021/06/25 01:56:00;;;;;;;21.43;19.23;;;18.60;96.90;;;;;;4935134;29;20336;-58
2021/06/25 01:58:29;;;;;;;21.30;19.23;;;18.50;96.80;;;;;;4928219;29;20218;-57
2021/06/25 02:01:08;;;;;;;20.50;18.60;;;18.60;96.50;;;;;;4927799;29;20490;-57
2021/06/25 02:03:33;;;;;;;20.27;18.47;;;18.60;95.70;;;;;;4915825;29;20476;-57
2021/06/25 02:05:59;;;;;;;21.03;19.13;;;18.50;96.50;;;;;;4914478;29;20473;-60
2021/06/25 02:08:25;;;;;;;21.50;19.40;;;18.60;96.70;;;;;;4924560;29;20185;-56
2021/06/25 02:10:51;;;;;;;22.70;20.57;;;18.60;96.20;;;;;;4916929;29;20200;-56
2021/06/25 02:13:17;;;;;;;21.73;19.53;;;18.60;96.60;;;;;;4924443;29;20585;-58
2021/06/25 02:15:42;;;;;;;20.77;18.70;;;18.60;97.40;;;;;;4921212;29;20464;-57
2021/06/25 02:18:08;;;;;;;20.93;19.10;;;18.60;97.60;;;;;;4915323;29;20267;-57
2021/06/25 02:20:33;;;;;;;22.23;20.27;;;18.60;97.90;;;;;;4918265;29;20217;-55
2021/06/25 02:22:59;;;;;;;21.90;20.03;;;18.50;99.90;;;;;;4934505;29;20264;-57
2021/06/25 02:25:24;;;;;;;22.10;19.93;;;18.50;99.90;;;;;;4931481;29;20190;-58
2021/06/25 02:27:50;;;;;;;20.80;18.97;;;18.50;99.90;;;;;;4927891;29;20194;-57
2021/06/25 02:30:17;;;;;;;22.43;20.33;;;18.40;99.90;;;;;;4929754;29;20278;-59
2021/06/25 02:32:44;;;;;;;21.93;19.93;;;18.40;99.90;;;;;;4915849;29;20195;-57
2021/06/25 02:35:11;;;;;;;22.83;20.63;;;18.40;99.90;;;;;;4917231;29;20425;-57
2021/06/25 02:37:37;;;;;;;22.60;20.27;;;18.40;99.90;;;;;;4918176;29;20445;-58
2021/06/25 02:40:04;;;;;;;20.93;18.70;;;18.40;99.90;;;;;;4907678;29;20469;-58
2021/06/25 02:42:29;;;;;;;20.93;18.90;;;18.40;99.90;;;;;;4923193;29;20952;-57
2021/06/25 02:44:55;;;;;;;21.80;19.80;;;18.50;99.90;;;;;;4913895;29;20435;-57
2021/06/25 02:47:21;;;;;;;20.33;18.53;;;18.50;99.90;;;;;;4914398;29;20221;-58
2021/06/25 02:49:46;;;;;;;21.30;19.30;;;18.50;99.90;;;;;;4913757;29;20605;-58
2021/06/25 02:52:12;;;;;;;21.27;19.37;;;18.50;99.90;;;;;;4931569;29;20205;-57
2021/06/25 02:54:37;;;;;;;21.30;19.40;;;18.50;99.90;;;;;;4922953;29;20241;-57
2021/06/25 02:57:04;;;;;;;21.30;19.30;;;18.40;99.90;;;;;;4929798;29;20182;-57
2021/06/25 02:59:29;;;;;;;21.13;19.07;;;18.40;99.90;;;;;;4931347;29;20585;-56
2021/06/25 03:01:55;;;;;;;22.60;20.30;;;18.40;99.90;;;;;;4929353;29;20936;-57
2021/06/25 03:04:20;;;;;;;20.17;18.47;;;18.40;99.90;;;;;;4935941;29;20633;-57
2021/06/25 03:06:46;;;;;;;22.13;20.03;;;18.30;99.90;;;;;;4918876;29;20707;-57
2021/06/25 03:09:12;;;;;;;21.47;19.30;;;18.30;99.90;;;;;;4913500;29;20190;-58
2021/06/25 03:11:38;;;;;;;21.57;19.67;;;18.30;99.90;;;;;;4914239;29;20190;-58
2021/06/25 03:14:03;;;;;;;24.00;21.70;;;18.30;99.90;;;;;;4921755;29;21418;-57
2021/06/25 03:16:29;;;;;;;22.03;19.80;;;18.30;99.90;;;;;;4914353;29;20236;-58
2021/06/25 03:18:55;;;;;;;23.63;21.20;;;18.30;99.90;;;;;;4917225;29;20316;-58
2021/06/25 03:21:20;;;;;;;23.97;21.77;;;18.30;99.90;;;;;;4913680;29;20270;-59
2021/06/25 03:23:46;;;;;;;25.23;22.93;;;18.30;99.90;;;;;;4917492;29;20233;-56
2021/06/25 03:26:12;;;;;;;23.93;21.63;;;18.30;99.90;;;;;;4913424;29;20179;-58
2021/06/25 03:28:37;;;;;;;26.57;23.97;;;18.20;99.90;;;;;;4913436;29;20446;-55
2021/06/25 03:31:03;;;;;;;23.73;21.53;;;18.10;99.90;;;;;;4919877;29;20525;-58
2021/06/25 03:33:28;;;;;;;27.80;23.83;;;18.00;99.90;;;;;;4916949;29;20198;-59
2021/06/25 03:35:54;;;;;;;26.40;23.70;;;17.90;99.90;;;;;;4913352;29;20281;-58
2021/06/25 03:38:20;;;;;;;25.50;23.07;;;17.90;99.90;;;;;;4918049;29;20220;-58
2021/06/25 03:40:45;;;;;;;27.80;25.00;;;17.90;99.90;;;;;;4928856;29;20661;-58
2021/06/25 03:43:11;;;;;;;27.80;25.10;;;17.80;99.90;;;;;;4928808;29;20218;-59
2021/06/25 03:45:36;;;;;;;27.97;25.27;;;17.80;99.90;;;;;;4928020;29;20275;-58
2021/06/25 03:48:03;;;;;;;27.40;24.60;;;17.80;99.90;;;;;;4920777;29;20209;-62
2021/06/25 03:50:29;;;;;;;26.57;23.80;;;17.80;99.90;;;;;;4920826;29;20663;-57
2021/06/25 03:52:55;;;;;;;26.27;23.63;;;17.70;99.90;;;;;;4918269;29;20506;-49
2021/06/25 03:55:21;;;;;;;26.43;23.83;;;17.70;99.90;;;;;;4923050;29;20186;-59
2021/06/25 03:57:47;;;;;;;26.93;24.13;;;17.70;99.90;;;;;;4917052;29;20530;-57
2021/06/25 04:00:17;;;;;;;26.97;24.33;;;17.70;99.90;;;;;;4912887;29;20324;-58
2021/06/25 04:02:44;;;;;;;29.03;25.33;;;17.60;99.90;;;;;;4919915;29;20440;-58
2021/06/25 04:05:10;;;;;;;27.13;24.40;;;17.60;99.90;;;;;;4916590;29;20450;-57
2021/06/25 04:07:37;;;;;;;27.17;24.10;;;17.60;99.90;;;;;;4911787;29;20506;-57
2021/06/25 04:10:05;;;;;;;25.40;23.07;;;17.60;99.90;;;;;;4912920;29;20444;-58
2021/06/25 04:12:32;;;;;;;25.50;23.00;;;17.50;99.90;;;;;;4921926;29;20437;-58
2021/06/25 04:14:58;;;;;;;25.93;23.30;;;17.50;99.90;;;;;;4912580;29;20455;-58
2021/06/25 04:17:23;;;;;;;26.30;23.80;;;17.70;99.90;;;;;;4914120;29;20441;-55
2021/06/25 04:19:49;;;;;;;25.40;22.80;;;17.60;99.90;;;;;;4877353;29;1039930;-58
2021/06/25 04:22:14;;;;;;;26.33;23.63;;;17.50;99.90;;;;;;4916863;29;20687;-58
2021/06/25 04:24:40;;;;;;;26.70;24.27;;;17.50;99.90;;;;;;4916150;29;20666;-58
2021/06/25 04:27:06;;;;;;;26.00;23.30;;;17.40;99.90;;;;;;4918416;29;20220;-59
2021/06/25 04:29:33;;;;;;;27.13;24.43;;;17.40;99.90;;;;;;4910659;29;20175;-58
2021/06/25 04:31:59;;;;;;;27.80;25.00;;;17.40;99.90;;;;;;4914667;29;20965;-56
2021/06/25 04:34:25;;;;;;;25.33;22.80;;;17.40;99.90;;;;;;4922581;29;20435;-57
2021/06/25 04:36:50;;;;;;;26.13;23.33;;;17.40;99.90;;;;;;4922876;29;20426;-56
2021/06/25 04:39:16;;;;;;;25.83;23.30;;;17.50;99.90;;;;;;4917716;29;20194;-57
2021/06/25 04:41:42;;;;;;;23.43;21.13;;;17.50;99.90;;;;;;4919046;29;20574;-57
2021/06/25 04:44:07;;;;;;;16.27;14.67;;;17.40;99.90;;;;;;4933930;29;20193;-55
2021/06/25 04:46:33;;;;;;;17.57;15.87;;;17.50;99.90;;;;;;4930641;29;20197;-55
2021/06/25 04:49:00;;;;;;;15.47;14.13;;;17.50;99.90;;;;;;4924808;29;20181;-55
2021/06/25 04:51:25;;;;;;;15.20;13.80;;;17.40;99.90;;;;;;4920521;29;20309;-55
2021/06/25 04:53:52;;;;;;;14.30;13.00;;;17.40;99.90;;;;;;4923563;29;20910;-54
2021/06/25 04:56:18;;;;;;;12.07;10.97;;;17.40;99.90;;;;;;4919645;29;20194;-57
2021/06/25 04:58:43;;;;;;;10.03;9.20;;;17.30;99.90;;;;;;4921073;29;20425;-56
2021/06/25 05:01:09;;;;;;;10.10;9.20;;;17.20;99.90;;;;;;4918673;29;20477;-60
2021/06/25 05:03:36;;;;;;;11.30;10.30;;;17.30;99.90;;;;;;4916332;29;20272;-60
2021/06/25 05:06:02;;;;;;;13.23;11.70;;;17.20;99.90;;;;;;4919083;29;20228;-59
2021/06/25 05:08:27;;;;;;;14.50;13.20;;;17.20;99.90;;;;;;4917152;29;20536;-60
2021/06/25 05:10:53;;;;;;;15.30;13.90;;;17.10;99.90;;;;;;4906586;29;20531;-59
2021/06/25 05:13:19;;;;;;;18.70;16.80;;;17.10;99.90;;;;;;4920911;29;20214;-60
2021/06/25 05:15:44;;;;;;;16.33;14.87;;;17.10;99.90;;;;;;4921452;29;20755;-60
2021/06/25 05:18:19;;;;;;;18.77;16.87;;;17.10;99.90;;;;;;4921487;29;20561;-59
2021/06/25 05:20:46;;;;;;;19.07;17.20;;;17.10;99.90;;;;;;4920267;29;20260;-59
2021/06/25 05:23:13;;;;;;;17.60;16.00;;;17.20;99.90;;;;;;4929111;29;20448;-59
2021/06/25 05:25:39;;;;;;;17.60;16.00;;;17.20;99.90;;;;;;4919640;29;20425;-60
2021/06/25 05:28:06;;;;;;;17.70;16.00;;;17.20;99.90;;;;;;4921615;29;20428;-60
2021/06/25 05:30:32;;;;;;;17.27;15.40;;;17.20;99.90;;;;;;4918205;29;20434;-59
2021/06/25 05:32:58;;;;;;;17.57;16.07;;;17.20;99.90;;;;;;4921482;29;20429;-59
2021/06/25 05:35:30;;;;;;;16.40;15.00;;;17.20;99.90;;;;;;4917738;29;20429;-59
2021/06/25 05:37:57;;;;;;;17.47;15.87;;;17.30;99.90;;;;;;4917504;29;20453;-59
2021/06/25 05:40:22;;;;;;;16.87;15.27;;;17.30;99.90;;;;;;4923576;29;20645;-59
2021/06/25 05:42:48;;;;;;;16.40;14.83;;;17.40;99.90;;;;;;4934027;29;20891;-58
2021/06/25 05:45:13;;;;;;;15.80;14.40;;;17.40;99.90;;;;;;4934114;29;20185;-58
2021/06/25 05:47:39;;;;;;;14.37;13.07;;;17.40;99.90;;;;;;4933613;29;20317;-59
2021/06/25 05:50:06;;;;;;;15.47;14.00;;;17.40;99.90;;;;;;4915904;29;20182;-59
2021/06/25 05:52:31;;;;;;;15.97;14.37;;;17.50;99.90;;;;;;4915205;29;20214;-59
2021/06/25 05:54:57;;;;;;;17.23;14.70;;;17.50;99.90;;;;;;4918844;29;20907;-59
2021/06/25 05:57:22;;;;;;;15.90;14.60;;;17.50;99.90;;;;;;4925792;29;20188;-59
2021/06/25 05:59:48;;;;;;;14.13;12.93;;;17.50;99.90;;;;;;4918751;29;20194;-58
2021/06/25 06:02:14;;;;;;;15.40;14.00;;;17.50;99.90;;;;;;4923614;29;20204;-52
2021/06/25 06:04:39;;;;;;;15.27;13.60;;;17.60;99.90;;;;;;4918686;29;20437;-59
2021/06/25 06:07:06;;;;;;;15.23;13.80;;;17.60;99.90;;;;;;4931129;29;20250;-59
2021/06/25 06:09:32;;;;;;;15.20;13.80;;;17.60;99.90;;;;;;4927031;29;20539;-59
2021/06/25 06:11:58;;;;;;;14.73;13.40;;;17.70;99.90;;;;;;4924466;29;20530;-58
2021/06/25 06:14:23;;;;;;;15.77;14.37;;;17.70;99.90;;;;;;4927718;29;20196;-58
2021/06/25 06:16:49;;;;;;;15.60;14.20;;;17.70;99.90;;;;;;4933053;29;20183;-55
2021/06/25 06:19:16;;;;;;;14.33;13.13;;;17.80;99.90;;;;;;4933170;29;20242;-58
2021/06/25 06:33:15;;;;;;;15.43;14.03;;;17.80;99.90;;;;;;4929249;29;20975;-58
2021/06/25 06:35:31;;;;;;;14.43;13.13;;;17.80;99.90;;;;;;4924769;29;20440;-59
2021/06/25 06:38:01;;;;;;;15.13;13.80;;;17.80;99.90;;;;;;4923620;29;20442;-59
2021/06/25 06:40:27;;;;;;;14.00;12.70;;;17.80;99.90;;;;;;4924407;29;20210;-58
2021/06/25 06:42:53;;;;;;;14.43;13.13;;;17.80;99.90;;;;;;4920551;29;20951;-59
2021/06/25 06:45:19;;;;;;;15.20;13.77;;;17.80;99.90;;;;;;4923286;29;20409;-58
2021/06/25 06:47:45;;;;;;;14.57;13.37;;;17.90;99.90;;;;;;4903029;29;20206;-59
2021/06/25 06:50:11;;;;;;;15.37;13.97;;;17.90;99.90;;;;;;4922531;29;20182;-58
2021/06/25 06:52:37;;;;;;;14.93;13.53;;;18.00;99.90;;;;;;4916792;29;20466;-59
2021/06/25 06:55:03;;;;;;;15.70;14.30;;;18.00;99.90;;;;;;4913417;29;20462;-58
2021/06/25 06:57:29;;;;;;;14.80;13.60;;;18.10;99.90;;;;;;4913629;29;20569;-59
2021/06/25 06:59:54;;;;;;;13.97;12.57;;;18.10;99.90;;;;;;4912855;29;20475;-59
2021/06/25 07:02:20;;;;;;;16.30;14.80;;;18.10;99.90;;;;;;4913859;29;20268;-52
2021/06/25 07:04:45;;;;;;;15.23;13.83;;;18.10;99.90;;;;;;4919278;29;20532;-59
2021/06/25 07:07:11;;;;;;;15.30;14.00;;;18.10;99.90;;;;;;4907695;29;20267;-59
2021/06/25 07:09:36;;;;;;;15.93;14.53;;;18.00;99.90;;;;;;4926760;29;20247;-58
2021/06/25 07:12:02;;;;;;;17.20;15.60;;;18.00;99.90;;;;;;4927404;29;20213;-59
2021/06/25 07:14:28;;;;;;;17.10;15.57;;;18.00;99.90;;;;;;4923715;29;20929;-59
2021/06/25 07:16:53;;;;;;;15.97;14.57;;;18.10;99.90;;;;;;4908978;29;20432;-58
2021/06/25 07:19:19;;;;;;;16.50;15.00;;;18.10;99.90;;;;;;4920227;29;20286;-59
2021/06/25 07:21:44;;;;;;;15.60;14.20;;;18.10;99.90;;;;;;4922094;29;20302;-59
2021/06/25 07:24:10;;;;;;;15.60;14.20;;;18.10;99.90;;;;;;4920022;29;20195;-58
2021/06/25 07:26:35;;;;;;;17.33;15.67;;;18.10;99.90;;;;;;4921793;29;20185;-59
2021/06/25 07:29:01;;;;;;;15.53;14.17;;;18.10;99.90;;;;;;4920471;29;20253;-58
2021/06/25 07:31:27;;;;;;;15.80;14.30;;;18.10;99.90;;;;;;4924002;29;20194;-58
2021/06/25 07:33:52;;;;;;;15.73;14.33;;;18.20;99.90;;;;;;4921422;29;20188;-59
2021/06/25 07:36:18;;;;;;;15.73;14.30;;;18.10;99.90;;;;;;4918142;29;20206;-56
2021/06/25 07:38:44;;;;;;;14.87;13.57;;;18.10;99.90;;;;;;4920340;29;20194;-58
2021/06/25 07:41:10;;;;;;;15.17;13.67;;;18.20;99.90;;;;;;4917982;29;20478;-59
2021/06/25 07:43:35;;;;;;;17.10;15.60;;;18.20;99.90;;;;;;4913056;29;20194;-59
2021/06/25 07:46:01;;;;;;;15.93;14.50;;;18.20;99.90;;;;;;4913975;29;20198;-57
2021/06/25 07:48:26;;;;;;;18.33;16.43;;;18.20;99.90;;;;;;4918606;29;20201;-58
2021/06/25 07:50:52;;;;;;;17.53;15.83;;;18.10;99.90;;;;;;4912888;29;20637;-51
2021/06/25 07:53:17;;;;;;;17.80;16.20;;;18.20;99.90;;;;;;4921766;29;20229;-55
2021/06/25 07:55:43;;;;;;;17.73;16.03;;;18.20;99.90;;;;;;4928596;29;20209;-58
2021/06/25 07:58:17;;;;;;;18.13;16.50;;;18.10;99.90;;;;;;4913304;29;20202;-58
2021/06/25 08:00:42;;;;;;;18.53;16.83;;;18.00;99.90;;;;;;4913518;29;20212;-57
2021/06/25 08:03:09;;;;;;;20.53;18.67;;;17.90;99.90;;;;;;4913172;29;20446;-58
2021/06/25 08:05:35;;;;;;;19.90;17.97;;;17.90;99.90;;;;;;4917069;29;20446;-56
2021/06/25 08:08:00;;;;;;;17.53;15.83;;;17.90;99.90;;;;;;4933567;29;20437;-58
2021/06/25 08:10:26;;;;;;;17.90;16.20;;;17.90;99.90;;;;;;4930643;29;20189;-60
2021/06/25 08:12:52;;;;;;;18.80;17.10;;;17.90;99.90;;;;;;4926461;29;20196;-55
2021/06/25 08:15:17;;;;;;;19.83;18.03;;;17.90;99.90;;;;;;4917257;29;20372;-59
2021/06/25 08:17:43;;;;;;;18.87;17.07;;;17.90;99.90;;;;;;4917137;29;20205;-59
2021/06/25 08:20:09;;;;;;;19.17;17.30;;;18.00;99.90;;;;;;4916675;29;20688;-59
2021/06/25 08:22:35;;;;;;;20.43;18.47;;;18.00;99.90;;;;;;4916711;29;20201;-59
2021/06/25 08:25:01;;;;;;;22.20;20.00;;;18.00;99.90;;;;;;4936638;28;21384;-60
2021/06/25 08:27:27;;;;;;;22.00;19.90;;;18.10;99.90;;;;;;4928461;29;20297;-58
2021/06/25 08:29:55;;;;;;;21.30;19.40;;;18.10;99.90;;;;;;4920015;29;20438;-51
2021/06/25 08:32:23;;;;;;;21.57;19.57;;;18.20;99.90;;;;;;4920083;29;20426;-56
2021/06/25 08:34:49;;;;;;;22.30;20.20;;;18.30;99.90;;;;;;4917842;29;20569;-54
2021/06/25 08:37:16;;;;;;;22.80;20.57;;;18.20;99.90;;;;;;4921912;29;20526;-58
2021/06/25 08:39:41;;;;;;;23.00;20.80;;;18.20;99.90;;;;;;4918024;29;20189;-58
2021/06/25 08:42:08;;;;;;;22.40;20.20;;;18.20;99.90;;;;;;4927772;29;20426;-58
2021/06/25 08:44:38;;;;;;;22.37;20.07;;;18.20;99.90;;;;;;4927062;29;20186;-57
2021/06/25 08:47:08;;;;;;;25.00;22.70;;;18.20;99.90;;;;;;4916637;29;20436;-56
2021/06/25 08:49:36;;;;;;;24.40;21.90;;;18.20;99.90;;;;;;4926674;29;20460;-58
2021/06/25 08:52:05;;;;;;;24.37;21.87;;;18.20;99.90;;;;;;4916183;29;20437;-57
2021/06/25 08:54:32;;;;;;;25.27;22.77;;;18.40;99.90;;;;;;4929625;29;20449;-58
2021/06/25 08:56:59;;;;;;;24.10;21.60;;;18.40;99.90;;;;;;4933567;29;20983;-55
2021/06/25 08:59:24;;;;;;;23.70;21.37;;;18.60;99.90;;;;;;4918559;29;20791;-56
2021/06/25 09:01:51;;;;;;;23.77;21.47;;;18.70;99.90;;;;;;4915991;29;20462;-56
2021/06/25 09:04:49;;;;;;;23.57;21.37;;;18.80;99.90;;;;;;4929266;28;20181;-58
2021/06/25 09:07:14;;;;;;;23.60;21.50;;;18.80;99.90;;;;;;4891339;29;20434;-57
2021/06/25 09:09:43;;;;;;;24.03;21.47;;;18.70;99.90;;;;;;4933123;29;20432;-58
2021/06/25 09:12:23;;;;;;;25.20;22.80;;;18.70;99.90;;;;;;4915064;29;20221;-56
2021/06/25 09:14:55;;;;;;;23.23;21.13;;;18.70;99.90;;;;;;4920158;29;20433;-58
2021/06/25 09:17:21;;;;;;;24.27;21.97;;;18.60;99.90;;;;;;4922500;29;20458;-58
2021/06/25 09:19:46;;;;;;;24.40;21.90;;;18.70;99.90;;;;;;4915509;29;20980;-58
2021/06/25 09:22:12;;;;;;;25.47;23.17;;;18.70;99.90;;;;;;4915316;29;20206;-58
2021/06/25 09:24:38;;;;;;;23.10;20.80;;;18.90;99.90;;;;;;4919741;29;20186;-59
2021/06/25 09:27:07;;;;;;;22.57;20.47;;;19.10;99.90;;;;;;4915218;29;20291;-57
2021/06/25 09:29:36;;;;;;;19.63;17.83;;;19.30;99.90;;;;;;4914400;29;20598;-53
2021/06/25 09:32:05;;;;;;;17.30;15.80;;;19.60;99.90;;;;;;4915646;29;20447;-58
2021/06/25 09:34:49;;;;;;;17.20;15.60;;;20.00;99.90;;;;;;4915151;29;20469;-56
2021/06/25 09:37:17;;;;;;;16.97;15.53;;;20.30;99.90;;;;;;4922698;29;20425;-56
2021/06/25 09:40:00;;;;;;;14.73;13.53;;;20.60;99.90;;;;;;4933343;29;20441;-56
2021/06/25 09:42:26;;;;;;;14.83;13.53;;;20.90;99.90;;;;;;4933886;29;20430;-55
2021/06/25 09:45:05;;;;;;;14.20;13.03;;;20.90;98.50;;;;;;4918151;29;20807;-57
2021/06/25 09:47:36;;;;;;;15.63;14.37;;;20.90;86.70;;;;;;4914520;29;20434;-56
2021/06/25 09:50:16;;;;;;;14.93;13.70;;;20.80;94.60;;;;;;4915234;29;20588;-56
2021/06/25 09:52:51;;;;;;;14.67;13.40;;;20.70;98.40;;;;;;4928093;29;20923;-53
2021/06/25 09:55:26;;;;;;;13.80;12.60;;;20.90;99.90;;;;;;4919908;29;20444;-55
2021/06/25 10:01:21;;;;;;;11.97;10.97;;;21.10;90.60;;;;;;4915792;29;20466;-55
2021/06/25 10:03:32;;;;;;;12.30;11.30;;;21.20;61.20;;;;;;4915156;29;20450;-56
2021/06/25 10:06:05;;;;;;;11.70;10.70;;;21.20;66.10;;;;;;4914562;29;20446;-57
2021/06/25 10:08:31;;;;;;;11.60;10.60;;;21.20;58.10;;;;;;4927958;29;20445;-56
2021/06/25 10:10:56;;;;;;;11.73;10.83;;;21.20;64.40;;;;;;4920117;29;20792;-56
2021/06/25 10:13:22;;;;;;;12.60;11.60;;;21.40;58.60;;;;;;4929100;29;20194;-55
2021/06/25 10:15:48;;;;;;;11.80;10.80;;;21.40;72.70;;;;;;4916233;29;20215;-56
2021/06/25 10:18:14;;;;;;;10.37;9.47;;;21.70;83.10;;;;;;4917101;29;20229;-56
2021/06/25 10:20:40;;;;;;;10.10;9.30;;;21.80;38.00;;;;;;4919647;29;20481;-56
2021/06/25 10:23:07;;;;;;;10.20;9.40;;;21.70;26.90;;;;;;4926913;29;20280;-54
2021/06/25 10:25:33;;;;;;;11.03;10.03;;;21.80;41.30;;;;;;4916282;29;20211;-57
2021/06/25 10:28:00;;;;;;;10.23;9.43;;;21.80;38.10;;;;;;4925694;29;20894;-54
2021/06/25 10:30:30;;;;;;;9.37;8.47;;;22.10;27.50;;;;;;4913673;29;20447;-55
2021/06/25 10:32:56;;;;;;;9.40;8.70;;;22.10;15.80;;;;;;4913875;29;20493;-54
2021/06/25 10:35:23;;;;;;;9.73;8.90;;;21.70;20.20;;;;;;4932410;29;20453;-54
2021/06/25 10:37:48;;;;;;;9.10;8.27;;;21.50;28.90;;;;;;4921313;29;21081;-54
2021/06/25 10:40:26;;;;;;;11.33;10.33;;;21.40;33.20;;;;;;4913205;29;20466;-56
2021/06/25 10:42:53;;;;;;;9.53;8.83;;;21.20;46.40;;;;;;4913248;29;20182;-54
2021/06/25 10:45:38;;;;;;;9.80;9.00;;;21.50;48.10;;;;;;4912900;29;20784;-55
2021/06/25 10:48:04;;;;;;;9.83;8.93;;;21.80;35.80;;;;;;4911557;29;20434;-56
2021/06/25 10:50:30;;;;;;;10.70;9.80;;;22.30;25.20;;;;;;4913056;29;20461;-55
2021/06/25 10:53:17;;;;;;;9.30;8.60;;;22.50;17.00;;;;;;4915826;29;20450;-57
2021/06/25 10:55:57;;;;;;;9.47;8.77;;;22.70;1.00;;;;;;4925367;29;20425;-56
2021/06/25 10:58:24;;;;;;;10.67;9.73;;;22.90;1.00;;;;;;4913191;29;20840;-56
2021/06/25 11:00:57;;;;;;;10.40;9.53;;;23.20;1.00;;;;;;4904829;29;20842;-57
2021/06/25 11:03:49;;;;;;;9.93;9.13;;;23.20;1.00;;;;;;4912710;29;20426;-56
2021/06/25 11:06:46;;;;;;;11.13;9.80;;;23.40;1.00;;;;;;4911515;29;20435;-57
2021/06/25 11:09:12;;;;;;;11.40;10.40;;;23.60;1.00;;;;;;4899233;29;20435;-58
2021/06/25 11:11:37;;;;;;;12.00;10.70;;;23.40;1.00;;;;;;4910995;29;20425;-58
2021/06/25 11:14:03;;;;;;;11.27;10.27;;;23.10;1.00;;;;;;4911673;29;20257;-60
2021/06/25 11:16:29;;;;;;;11.60;10.70;;;22.80;1.00;;;;;;4911352;29;20200;-56
2021/06/25 11:18:55;;;;;;;11.60;10.70;;;22.60;1.00;;;;;;4921803;29;20296;-58
2021/06/25 11:21:40;;;;;;;11.20;10.40;;;22.70;1.00;;;;;;4922416;29;20234;-57
2021/06/25 11:24:06;;;;;;;10.87;10.00;;;22.70;1.00;;;;;;4912461;29;20426;-58
2021/06/25 11:26:31;;;;;;;10.90;10.10;;;22.60;1.00;;;;;;4917161;29;20493;-55
2021/06/25 11:29:08;;;;;;;10.80;9.90;;;22.80;1.00;;;;;;4922565;29;20282;-58
2021/06/25 11:31:34;;;;;;;10.43;9.63;;;23.00;1.00;;;;;;4918417;29;20318;-58
2021/06/25 11:34:04;;;;;;;10.33;9.43;;;23.00;1.00;;;;;;4912159;29;21188;-57
2021/06/25 11:36:52;;;;;;;11.30;10.40;;;23.30;1.00;;;;;;4912155;29;20557;-56
2021/06/25 11:39:17;;;;;;;11.20;10.30;;;23.60;1.00;;;;;;4921493;29;20433;-56
2021/06/25 11:42:02;;;;;;;9.93;9.23;;;24.10;1.00;;;;;;4935346;29;20473;-56
2021/06/25 11:44:42;;;;;;;9.50;8.80;;;23.80;1.00;;;;;;4917560;29;20198;-58
2021/06/25 11:47:11;;;;;;;10.20;9.40;;;24.10;1.00;;;;;;4911927;29;20517;-57
2021/06/25 11:49:49;;;;;;;10.63;9.87;;;24.50;1.00;;;;;;4921494;29;20905;-57
2021/06/25 11:52:18;;;;;;;11.00;10.10;;;24.80;1.00;;;;;;4914371;29;20430;-55
2021/06/25 11:54:55;;;;;;;10.60;9.90;;;25.30;1.00;;;;;;4913546;29;20441;-57
2021/06/25 11:57:23;;;;;;;10.53;9.83;;;25.40;1.00;;;;;;4917228;29;20434;-55
2021/06/25 12:00:07;;;;;;;11.20;10.30;;;25.60;99.90;;;;;;4918235;29;20488;-58
2021/06/25 12:02:55;;;;;;;10.60;9.90;;;25.60;1.00;;;;;;4914932;29;20482;-54
2021/06/25 12:05:30;;;;;;;10.87;10.07;;;25.70;99.90;;;;;;4913841;29;20479;-58
2021/06/25 12:08:00;;;;;;;12.13;11.23;;;26.20;1.00;;;;;;4916194;29;20421;-58
2021/06/25 12:10:25;;;;;;;12.00;11.20;;;26.20;99.90;;;;;;4912533;29;20441;-58
2021/06/25 12:12:57;;;;;;;12.30;11.30;;;26.20;1.00;;;;;;4918551;29;20443;-59
2021/06/25 12:15:23;;;;;;;11.30;10.50;;;25.70;99.90;;;;;;4919872;29;20192;-58
2021/06/25 12:17:53;;;;;;;12.23;11.37;;;25.80;1.00;;;;;;4917138;29;20452;-56
2021/06/25 12:20:23;;;;;;;12.07;11.17;;;26.30;55.00;;;;;;4915748;29;20466;-59
2021/06/25 12:22:55;;;;;;;11.30;10.50;;;25.50;99.90;;;;;;4929107;29;20467;-58
2021/06/25 12:25:31;;;;;;;11.27;10.47;;;25.50;99.90;;;;;;4921454;29;20435;-58
2021/06/25 12:27:57;;;;;;;12.70;11.80;;;25.30;99.90;;;;;;4922099;29;20448;-57
2021/06/25 12:30:24;;;;;;;12.70;11.70;;;25.20;1.00;;;;;;4919005;29;20781;-59
2021/06/25 12:33:04;;;;;;;12.43;11.53;;;25.00;99.90;;;;;;4918090;29;20203;-59
2021/06/25 12:35:35;;;;;;;12.97;12.07;;;24.70;1.00;;;;;;4919900;29;20473;-59
2021/06/25 12:38:06;;;;;;;12.70;11.80;;;24.50;1.00;;;;;;4911446;29;20454;-58
2021/06/25 12:40:51;;;;;;;11.90;11.00;;;24.30;1.00;;;;;;4913612;29;20984;-59
2021/06/25 12:43:30;;;;;;;12.07;10.97;;;24.60;1.00;;;;;;4915972;29;20447;-59
2021/06/25 12:46:06;;;;;;;12.33;11.43;;;24.70;1.00;;;;;;4918553;29;20428;-58